Time;durP1;ratioP1;P1;durP2;ratioP2;P2;SDS_P1;SDS_P2;PMS_P1;PMS_P2;Temp;Humidity;BMP_temperature;BMP_pressure;BME280_temperature;BME280_humidity;BME280_pressure;Samples;Min_cycle;Max_cycle;Signal;HPM_P1;HPM_P2
2022/12/14 00:05:39;;;;;;;21.20;9.88;;;;;;;-2.25;100.00;99077.53;20998159;28;20094;-82
2022/12/14 00:15:41;;;;;;;25.55;10.18;;;;;;;-2.28;100.00;99087.72;20996818;28;20052;-82
2022/12/14 00:25:42;;;;;;;23.40;10.25;;;;;;;-2.19;100.00;99056.25;20997830;28;20404;-83
2022/12/14 00:35:49;;;;;;;22.17;9.93;;;;;;;-2.10;100.00;99046.13;20995368;28;20067;-83
2022/12/14 00:45:50;;;;;;;24.90;10.30;;;;;;;-2.00;100.00;99030.00;20995210;28;20068;-83
2022/12/14 00:55:51;;;;;;;22.25;9.98;;;;;;;-1.97;100.00;99031.72;20995365;28;20045;-83
2022/12/14 01:05:53;;;;;;;25.77;10.68;;;;;;;-1.98;100.00;99035.13;21037553;28;20045;-83
2022/12/14 01:15:54;;;;;;;21.20;10.45;;;;;;;-1.81;100.00;99034.50;20970941;22;20160;-72
2022/12/14 01:25:55;;;;;;;21.35;9.85;;;;;;;-1.83;100.00;99032.75;20901017;28;20107;-72
2022/12/14 01:36:00;;;;;;;20.25;9.52;;;;;;;-1.84;100.00;99023.34;20898489;28;20551;-71
2022/12/14 01:46:01;;;;;;;21.75;10.40;;;;;;;-1.70;100.00;99026.06;20898862;28;20061;-70
2022/12/14 01:56:02;;;;;;;21.30;10.10;;;;;;;-1.75;100.00;99012.31;20899217;28;20148;-71
2022/12/14 02:06:04;;;;;;;22.05;10.45;;;;;;;-1.69;100.00;98984.16;20898555;28;20123;-71
2022/12/14 02:16:05;;;;;;;25.10;11.52;;;;;;;-1.73;100.00;98974.69;20898037;28;20467;-70
2022/12/14 02:26:06;;;;;;;24.10;10.77;;;;;;;-1.67;100.00;98979.91;20897593;28;20737;-70
2022/12/14 02:36:08;;;;;;;23.40;10.70;;;;;;;-1.56;100.00;98979.16;20896921;28;20065;-70
2022/12/14 02:46:09;;;;;;;23.60;10.93;;;;;;;-1.60;100.00;98968.84;20897103;28;20091;-71
2022/12/14 02:56:11;;;;;;;24.08;11.45;;;;;;;-1.44;100.00;98969.84;20898546;28;20072;-70
2022/12/14 03:06:15;;;;;;;26.80;12.35;;;;;;;-1.51;100.00;98955.25;20911534;28;20289;-71
2022/12/14 03:16:16;;;;;;;;;;;;;;;-1.44;100.00;98952.75;20911413;28;20061;-71
2022/12/14 03:26:17;;;;;;;25.83;12.02;;;;;;;-1.54;100.00;98945.81;20910754;28;19920;-71
2022/12/14 03:36:19;;;;;;;24.67;11.02;;;;;;;-1.46;100.00;98910.81;20909838;28;20059;-71
2022/12/14 03:46:20;;;;;;;26.70;11.85;;;;;;;-1.46;100.00;98908.25;20908666;28;20049;-70
2022/12/14 03:56:21;;;;;;;22.83;10.38;;;;;;;-1.51;100.00;98899.66;20908436;28;20053;-70
2022/12/14 04:06:22;;;;;;;26.13;10.60;;;;;;;-1.51;100.00;98899.66;20906552;28;20055;-70
2022/12/14 04:26:44;;;;;;;19.17;9.65;;;;;;;-1.54;100.00;98876.50;20822380;28;20521;-72
2022/12/14 04:36:45;;;;;;;23.10;10.15;;;;;;;-1.46;100.00;98871.44;20821560;28;20088;-69
2022/12/14 04:46:46;;;;;;;23.15;11.10;;;;;;;-1.39;100.00;98871.53;20820905;28;20057;-69
2022/12/14 04:56:48;;;;;;;25.77;11.20;;;;;;;-1.48;100.00;98862.91;20820514;28;20053;-70
2022/12/14 05:06:49;;;;;;;24.95;11.55;;;;;;;-1.38;100.00;98856.97;20820292;28;20053;-70
2022/12/14 05:16:50;;;;;;;19.65;9.70;;;;;;;-1.51;100.00;98853.44;20819602;28;20414;-70
2022/12/14 05:26:53;;;;;;;23.90;10.73;;;;;;;-1.43;100.00;98846.69;20900859;28;20061;-71
2022/12/14 05:36:54;;;;;;;23.08;12.18;;;;;;;-1.36;100.00;98834.72;20900066;28;20057;-72
2022/12/14 05:46:56;;;;;;;26.02;12.85;;;;;;;-1.43;100.00;98831.28;20899937;28;20061;-72
2022/12/14 05:56:57;;;;;;;29.20;14.73;;;;;;;-1.40;100.00;98821.00;20904314;28;20063;-71
2022/12/14 06:06:58;;;;;;;31.77;13.77;;;;;;;-1.44;100.00;98793.59;20977225;28;20055;-70
2022/12/14 06:17:00;;;;;;;34.53;16.05;;;;;;;-1.42;100.00;98785.94;20981292;28;20056;-70
2022/12/14 06:27:01;;;;;;;29.70;14.23;;;;;;;-1.33;100.00;98789.41;20898384;28;20064;-70
2022/12/14 06:37:02;;;;;;;32.90;15.50;;;;;;;-1.41;100.00;98764.53;20908154;28;20456;-71
2022/12/14 06:47:04;;;;;;;33.42;15.98;;;;;;;-1.42;100.00;98740.56;20912951;28;20079;-72
2022/12/14 06:57:05;;;;;;;30.75;15.40;;;;;;;-1.31;100.00;98717.53;20912244;28;20153;-70
2022/12/14 07:07:06;;;;;;;29.08;14.05;;;;;;;-1.43;100.00;98759.41;20911352;28;20057;-70
2022/12/14 07:17:07;;;;;;;29.27;14.30;;;;;;;-1.52;100.00;98749.06;20910786;28;20064;-74
2022/12/14 07:27:09;;;;;;;34.50;16.08;;;;;;;-1.41;100.00;98734.59;20992273;22;20048;-72
2022/12/14 07:37:10;;;;;;;40.90;17.77;;;;;;;-1.41;100.00;98737.16;21016440;28;20048;-71
2022/12/14 07:47:11;;;;;;;38.13;19.25;;;;;;;-1.39;100.00;98732.00;20992223;28;20436;-70
2022/12/14 07:57:16;;;;;;;37.85;16.90;;;;;;;-1.40;100.00;98725.16;20992638;28;20135;-70
2022/12/14 08:07:18;;;;;;;40.00;18.08;;;;;;;-1.34;100.00;98768.88;21050546;28;20125;-70
2022/12/14 08:17:19;;;;;;;40.45;19.02;;;;;;;-1.66;100.00;98750.69;21046473;28;20091;-69
2022/12/14 08:27:20;;;;;;;41.03;19.90;;;;;;;-1.88;100.00;98717.19;21001854;28;20049;-69
2022/12/14 08:37:22;;;;;;;52.83;23.75;;;;;;;-1.85;100.00;98694.13;21018009;28;20052;-70
2022/12/14 08:47:23;;;;;;;51.47;23.67;;;;;;;-1.69;100.00;98700.22;21012648;28;20122;-70
2022/12/14 08:57:24;;;;;;;53.92;24.80;;;;;;;-1.95;100.00;98720.56;21018276;28;20055;-70
2022/12/14 09:07:25;;;;;;;49.40;24.13;;;;;;;-2.12;100.00;98734.97;21021421;28;20113;-71
2022/12/14 09:17:27;;;;;;;54.67;26.52;;;;;;;-2.07;100.00;98744.41;21140959;28;20063;-72
2022/12/14 09:27:28;;;;;;;55.70;27.63;;;;;;;-2.09;100.00;98753.81;20985007;28;20052;-72
2022/12/14 09:37:29;;;;;;;66.32;29.42;;;;;;;-2.10;100.00;98744.41;20983979;28;20566;-71
2022/12/14 09:47:31;;;;;;;61.35;27.83;;;;;;;-2.10;100.00;98739.28;20983419;28;20057;-72
2022/12/14 09:57:32;;;;;;;62.20;28.27;;;;;;;-1.98;100.00;98728.22;20982839;28;20150;-72
2022/12/14 10:07:33;;;;;;;60.97;27.27;;;;;;;-1.92;100.00;98738.53;20986184;28;20052;-71
2022/12/14 10:17:35;;;;;;;63.42;28.60;;;;;;;-1.93;100.00;98736.81;20999088;28;20056;-71
2022/12/14 10:27:36;;;;;;;57.28;27.55;;;;;;;-1.78;100.00;98732.63;21031645;28;20052;-70
2022/12/14 10:37:57;;;;;;;59.85;28.63;;;;;;;-1.77;100.00;98730.09;21070717;23;20064;-74
2022/12/14 10:58:12;;;;;;;61.40;27.88;;;;;;;-1.70;100.00;98731.84;20706391;28;20140;-75
2022/12/14 11:08:14;;;;;;;65.25;29.52;;;;;;;-1.82;100.00;98742.91;20747078;28;20108;-74
2022/12/14 11:18:15;;;;;;;64.45;29.60;;;;;;;-1.77;100.00;98734.34;20734252;28;20133;-75
2022/12/14 11:28:17;;;;;;;56.20;26.85;;;;;;;-1.55;100.00;98731.09;20665609;28;20055;-74
2022/12/14 11:38:19;;;;;;;53.15;26.27;;;;;;;-1.85;100.00;98740.31;20665709;28;20058;-74
2022/12/14 11:48:21;;;;;;;64.80;28.85;;;;;;;-1.78;100.00;98738.63;20664412;28;20404;-74
2022/12/14 11:58:22;;;;;;;60.65;27.73;;;;;;;-1.62;100.00;98722.50;20663798;28;20062;-74
2022/12/14 12:08:23;;;;;;;58.50;27.10;;;;;;;-1.37;100.00;98735.47;20663144;28;20109;-74
2022/12/14 12:18:25;;;;;;;52.88;25.00;;;;;;;-1.48;100.00;98740.56;20660765;28;20090;-72
2022/12/14 12:28:27;;;;;;;56.15;27.55;;;;;;;-1.23;100.00;98741.53;20660221;28;20490;-74
2022/12/14 12:38:29;;;;;;;56.17;27.35;;;;;;;-1.16;100.00;98743.25;20728570;28;20700;-74
2022/12/14 12:48:31;;;;;;;56.80;29.75;;;;;;;-1.25;100.00;98747.50;20742910;28;20464;-74
2022/12/14 12:58:33;;;;;;;55.85;27.88;;;;;;;-1.27;100.00;98744.06;20821780;28;20469;-74
2022/12/14 13:08:35;;;;;;;55.42;27.25;;;;;;;-1.09;100.00;98733.88;20749145;28;20057;-71
2022/12/14 13:18:36;;;;;;;66.78;29.08;;;;;;;-1.24;100.00;98749.22;20735949;28;20415;-72
2022/12/14 13:28:57;;;;;;;58.55;29.00;;;;;;;-1.36;100.00;98762.84;20737029;28;20077;-74
2022/12/14 13:38:58;;;;;;;57.00;26.20;;;;;;;-1.33;100.00;98774.00;20809219;28;20049;-75
2022/12/14 13:49:00;;;;;;;60.78;27.95;;;;;;;-1.23;100.00;98781.75;20817767;28;20061;-75
2022/12/14 13:59:01;;;;;;;60.83;27.45;;;;;;;-1.27;100.00;98798.00;20816567;28;20128;-75
2022/12/14 14:09:02;;;;;;;53.80;25.58;;;;;;;-1.38;100.00;98814.19;20898605;28;20110;-76
2022/12/14 14:19:04;;;;;;;60.75;27.73;;;;;;;-1.51;100.00;98827.78;20862599;28;20054;-75
2022/12/14 14:29:06;;;;;;;55.22;28.45;;;;;;;-1.41;100.00;98850.09;20746335;28;20053;-81
2022/12/14 14:39:07;;;;;;;68.50;31.50;;;;;;;-1.42;100.00;98857.81;20743489;28;20479;-77
2022/12/14 14:49:29;;;;;;;65.50;28.55;;;;;;;-1.66;100.00;98872.16;20738389;28;20692;-76
2022/12/14 14:59:30;;;;;;;59.28;29.08;;;;;;;-1.55;100.00;98882.50;20751119;28;20053;-76
2022/12/14 15:09:32;;;;;;;66.30;29.13;;;;;;;-1.50;100.00;98879.97;20746364;28;20050;-76
2022/12/14 15:19:35;;;;;;;62.80;29.90;;;;;;;-1.49;100.00;98918.47;20747292;28;20461;-77
2022/12/14 15:29:36;;;;;;;64.47;28.52;;;;;;;-1.69;100.00;98946.53;20746200;28;20112;-76
2022/12/14 15:39:39;;;;;;;64.25;29.73;;;;;;;-1.57;100.00;98943.22;20744528;28;20495;-76
2022/12/14 15:49:40;;;;;;;58.88;26.67;;;;;;;-1.59;100.00;98942.34;20744156;28;20057;-75
2022/12/14 15:59:42;;;;;;;60.33;27.17;;;;;;;-1.53;100.00;98969.75;20743724;28;20062;-75
2022/12/14 16:09:43;;;;;;;59.40;27.63;;;;;;;-1.48;100.00;98980.97;20742035;28;20274;-78
2022/12/14 16:19:50;;;;;;;68.53;31.55;;;;;;;-1.59;100.00;99001.38;20743474;28;20058;-75
2022/12/14 16:30:00;;;;;;;60.78;29.85;;;;;;;-1.60;100.00;98991.94;20741569;28;20057;-76
2022/12/14 16:40:01;;;;;;;56.03;27.42;;;;;;;-1.61;100.00;99005.63;20821047;28;20072;-75
2022/12/14 16:50:02;;;;;;;58.40;27.15;;;;;;;-1.63;100.00;99020.13;20823649;28;20046;-73
2022/12/14 17:00:04;;;;;;;63.20;30.92;;;;;;;-1.70;100.00;99008.97;20820208;28;20049;-74
2022/12/14 17:10:05;;;;;;;81.80;37.40;;;;;;;-1.70;100.00;99036.31;20727395;28;20415;-73
2022/12/14 17:20:07;;;;;;;64.30;29.75;;;;;;;-1.73;100.00;99047.41;20730345;28;20061;-73
2022/12/14 17:30:14;;;;;;;56.65;27.92;;;;;;;-1.71;100.00;99055.13;20729436;28;20049;-73
2022/12/14 17:40:15;;;;;;;59.25;28.52;;;;;;;-1.67;100.00;99070.59;20729555;28;20054;-73
2022/12/14 17:50:17;;;;;;;61.15;27.48;;;;;;;-1.61;100.00;99080.91;20728207;28;20108;-72
2022/12/14 18:10:38;;;;;;;47.13;24.13;;;;;;;-1.87;100.00;99075.47;20726998;28;20391;-72
2022/12/14 18:20:39;;;;;;;50.25;25.10;;;;;;;-1.82;100.00;99088.34;20727058;28;20561;-72
2022/12/14 18:30:40;;;;;;;63.83;26.13;;;;;;;-1.90;100.00;99083.13;20733970;28;20100;-72
2022/12/14 18:40:49;;;;;;;57.72;25.33;;;;;;;-1.84;100.00;99090.91;20743217;28;20173;-74
2022/12/14 18:50:50;;;;;;;46.30;23.80;;;;;;;-1.85;100.00;99098.59;20719306;28;20086;-74
2022/12/14 19:00:52;;;;;;;56.13;27.48;;;;;;;-1.82;100.00;99127.72;20660827;28;20494;-75
2022/12/14 19:10:53;;;;;;;51.88;24.15;;;;;;;-1.73;100.00;99133.78;20658871;28;20117;-75
2022/12/14 19:20:55;;;;;;;53.55;24.85;;;;;;;-1.82;100.00;99131.94;20659048;28;20414;-74
2022/12/14 19:30:56;;;;;;;53.83;25.65;;;;;;;-1.81;100.00;99142.25;20657837;28;20074;-74
2022/12/14 19:40:57;;;;;;;55.60;26.20;;;;;;;-1.89;100.00;99146.41;20655846;28;20521;-73
2022/12/14 19:50:58;;;;;;;52.42;25.23;;;;;;;-1.84;100.00;99134.50;20678689;28;20053;-74
2022/12/14 20:01:00;;;;;;;63.80;28.83;;;;;;;-1.82;100.00;99148.22;20744551;28;20513;-75
2022/12/14 20:11:01;;;;;;;50.78;22.55;;;;;;;-1.88;100.00;99165.22;20817247;28;20057;-74
2022/12/14 20:21:02;;;;;;;47.47;22.52;;;;;;;-1.88;100.00;99172.91;20815805;28;20057;-74
2022/12/14 20:31:04;;;;;;;47.40;21.70;;;;;;;-1.88;100.00;99173.78;20814569;28;20417;-74
2022/12/14 20:41:05;;;;;;;46.05;20.92;;;;;;;-1.98;100.00;99184.75;20815014;28;20057;-73
2022/12/14 20:51:06;;;;;;;49.75;23.13;;;;;;;-1.92;100.00;99177.13;20836665;28;20563;-74
2022/12/14 21:01:07;;;;;;;58.10;26.48;;;;;;;-1.86;100.00;99174.69;20895035;28;20110;-73
2022/12/14 21:21:29;;;;;;;46.63;21.88;;;;;;;-2.16;100.00;99192.16;20807889;28;20094;-73
2022/12/14 21:31:30;;;;;;;45.15;22.10;;;;;;;-2.25;100.00;99197.13;20892292;28;20114;-74
2022/12/14 21:51:51;;;;;;;48.17;22.00;;;;;;;-2.27;100.00;99186.88;20891650;28;20056;-73
2022/12/14 22:01:52;;;;;;;53.97;21.95;;;;;;;-2.24;100.00;99198.88;20891634;28;20048;-74
2022/12/14 22:11:54;;;;;;;47.45;21.92;;;;;;;-2.27;100.00;99202.25;20852163;28;20104;-74
2022/12/14 22:21:55;;;;;;;51.33;25.65;;;;;;;-2.17;100.00;99218.66;20811909;28;20102;-73
2022/12/14 22:31:57;;;;;;;46.30;22.60;;;;;;;-2.17;100.00;99216.09;20890595;28;20217;-73
2022/12/14 22:41:58;;;;;;;45.45;21.75;;;;;;;-2.19;100.00;99213.50;20890329;28;20478;-72
2022/12/14 22:52:00;;;;;;;50.35;22.48;;;;;;;-2.24;100.00;99209.16;20890363;28;20206;-72
2022/12/14 23:02:01;;;;;;;46.72;21.73;;;;;;;-2.25;100.00;99223.66;20868846;28;20057;-73
